createdAt,value
2023-01-03T00:02:03.217Z,22.15
2023-01-03T00:04:32.261Z,23.10
2023-01-03T00:07:01.466Z,20.82
2023-01-03T00:09:30.681Z,22.17
2023-01-03T00:12:18.026Z,23.47
2023-01-03T00:14:47.984Z,24.55
2023-01-03T00:17:18.760Z,26.10
2023-01-03T00:19:48.101Z,28.85
2023-01-03T00:22:17.466Z,29.42
2023-01-03T00:24:47.502Z,28.15
2023-01-03T00:27:16.445Z,27.45
2023-01-03T00:29:45.883Z,26.80
2023-01-03T00:32:14.725Z,27.25
2023-01-03T00:34:45.727Z,24.87
2023-01-03T00:37:15.254Z,23.75
2023-01-03T00:39:43.852Z,22.90
2023-01-03T00:42:12.506Z,20.97
2023-01-03T00:44:41.932Z,21.57
2023-01-03T00:47:10.719Z,23.50
2023-01-03T00:49:40.007Z,22.93
2023-01-03T00:52:09.119Z,22.80
2023-01-03T00:54:38.858Z,24.27
2023-01-03T00:57:07.546Z,23.02
2023-01-03T00:59:36.408Z,22.85
2023-01-03T01:02:05.320Z,22.65
2023-01-03T01:04:34.350Z,22.77
2023-01-03T01:07:04.023Z,23.02
2023-01-03T01:09:35.855Z,23.05
2023-01-03T01:12:05.749Z,24.25
2023-01-03T01:14:34.959Z,22.40
2023-01-03T01:17:07.486Z,17.57
2023-01-03T01:19:42.695Z,18.90
2023-01-03T01:22:11.666Z,17.42
2023-01-03T01:24:40.689Z,14.95
2023-01-03T01:27:09.779Z,19.40
2023-01-03T01:29:39.434Z,21.50
2023-01-03T01:32:08.033Z,22.32
2023-01-03T01:34:37.354Z,22.80
2023-01-03T01:37:07.620Z,21.25
2023-01-03T01:39:38.460Z,19.37
2023-01-03T01:42:31.200Z,19.48
2023-01-03T01:45:05.597Z,16.00
2023-01-03T01:47:53.074Z,15.65
2023-01-03T01:50:38.879Z,13.50
2023-01-03T01:53:20.822Z,13.55
2023-01-03T01:56:09.569Z,11.12
2023-01-03T01:58:40.245Z,11.22
2023-01-03T02:01:12.155Z,9.83
2023-01-03T02:03:43.318Z,10.25
2023-01-03T02:06:14.604Z,10.23
2023-01-03T02:08:44.813Z,10.20
2023-01-03T02:11:56.626Z,9.68
2023-01-03T02:14:55.454Z,9.83
2023-01-03T02:17:55.776Z,10.38
2023-01-03T02:20:44.177Z,10.00
2023-01-03T02:23:36.578Z,9.45
2023-01-03T02:26:33.496Z,10.15
2023-01-03T02:29:41.099Z,10.00
2023-01-03T02:32:34.331Z,9.95
2023-01-03T02:35:28.601Z,10.05
2023-01-03T02:38:20.748Z,10.98
2023-01-03T02:41:01.167Z,10.65
2023-01-03T02:43:58.379Z,10.43
2023-01-03T02:46:53.095Z,11.00
2023-01-03T02:49:38.840Z,9.95
2023-01-03T02:52:13.903Z,10.18
2023-01-03T02:54:59.043Z,10.45
2023-01-03T02:57:33.071Z,10.45
2023-01-03T03:00:10.360Z,10.78
2023-01-03T03:02:39.948Z,10.23
2023-01-03T03:05:12.859Z,10.30
2023-01-03T03:07:41.739Z,10.82
2023-01-03T03:10:28.834Z,10.80
2023-01-03T03:13:36.657Z,12.35
2023-01-03T03:16:13.441Z,12.35
2023-01-03T03:18:58.599Z,11.20
2023-01-03T03:21:50.791Z,11.03
2023-01-03T03:24:42.560Z,12.43
2023-01-03T03:27:31.299Z,12.45
2023-01-03T03:30:00.800Z,12.78
2023-01-03T03:32:29.926Z,12.65
2023-01-03T03:34:59.541Z,10.48
2023-01-03T03:37:30.096Z,11.40
2023-01-03T03:40:17.396Z,11.28
2023-01-03T03:43:18.030Z,10.00
2023-01-03T03:46:16.655Z,10.53
2023-01-03T03:49:21.835Z,10.80
2023-01-03T03:51:51.750Z,10.35
2023-01-03T03:54:21.208Z,11.00
2023-01-03T03:57:00.413Z,11.18
2023-01-03T03:59:28.873Z,10.82
2023-01-03T04:01:58.992Z,11.28
2023-01-03T04:04:35.113Z,10.65
2023-01-03T04:07:04.807Z,11.48
2023-01-03T04:09:33.774Z,10.95
2023-01-03T04:12:03.883Z,11.35
2023-01-03T04:14:33.937Z,11.55
2023-01-03T04:17:04.206Z,11.48
2023-01-03T04:19:33.401Z,12.07
2023-01-03T04:22:03.692Z,11.33
2023-01-03T04:24:32.965Z,11.70
2023-01-03T04:27:01.883Z,12.20
2023-01-03T04:29:37.054Z,11.70
2023-01-03T04:32:02.308Z,10.72
2023-01-03T04:34:31.316Z,11.38
2023-01-03T04:37:01.583Z,12.05
2023-01-03T04:39:30.262Z,11.57
2023-01-03T04:42:01.449Z,11.18
2023-01-03T04:44:32.221Z,10.63
2023-01-03T04:47:01.011Z,11.48
2023-01-03T04:49:31.518Z,11.80
2023-01-03T04:52:02.339Z,11.97
2023-01-03T04:54:31.823Z,11.65
2023-01-03T04:57:01.498Z,10.95
2023-01-03T04:59:31.807Z,12.45
2023-01-03T05:02:02.048Z,12.47
2023-01-03T05:04:31.907Z,13.25
2023-01-03T05:07:00.740Z,12.78
2023-01-03T05:09:29.494Z,13.43
2023-01-03T05:12:00.187Z,13.38
2023-01-03T05:14:28.955Z,12.05
2023-01-03T05:16:58.998Z,12.18
2023-01-03T05:19:28.817Z,12.15
2023-01-03T05:22:16.773Z,11.73
2023-01-03T05:25:04.069Z,11.75
2023-01-03T05:27:33.102Z,12.75
2023-01-03T05:30:01.841Z,14.93
2023-01-03T05:32:30.943Z,16.15
2023-01-03T05:34:59.826Z,15.38
2023-01-03T05:37:29.260Z,12.90
2023-01-03T05:39:58.352Z,12.90
2023-01-03T05:42:27.492Z,11.50
2023-01-03T05:44:56.792Z,13.20
2023-01-03T05:47:26.540Z,17.98
2023-01-03T05:49:55.508Z,14.43
2023-01-03T05:52:28.180Z,13.10
2023-01-03T05:54:58.013Z,14.50
2023-01-03T05:57:33.448Z,14.45
2023-01-03T05:59:58.246Z,14.25
2023-01-03T06:02:28.995Z,14.38
2023-01-03T06:04:58.939Z,13.18
2023-01-03T06:07:32.889Z,15.43
2023-01-03T06:10:02.098Z,11.43
2023-01-03T06:12:32.056Z,13.22
2023-01-03T06:15:01.352Z,12.78
2023-01-03T06:17:49.128Z,11.40
2023-01-03T06:20:18.717Z,12.63
2023-01-03T06:22:47.613Z,12.78
2023-01-03T06:25:17.236Z,11.75
2023-01-03T06:27:46.621Z,14.90
2023-01-03T06:30:18.623Z,17.17
2023-01-03T06:32:47.437Z,15.23
2023-01-03T06:35:16.447Z,11.80
2023-01-03T06:37:45.274Z,11.70
2023-01-03T06:40:14.277Z,10.45
2023-01-03T06:42:44.503Z,10.72
2023-01-03T06:45:33.135Z,10.58
2023-01-03T06:48:25.604Z,10.15
2023-01-03T06:51:13.650Z,10.05
2023-01-03T06:53:43.919Z,9.50
2023-01-03T06:56:12.753Z,11.08
2023-01-03T06:58:42.757Z,10.03
2023-01-03T07:01:11.519Z,9.80
2023-01-03T07:03:40.594Z,9.10
2023-01-03T07:06:09.403Z,9.15
2023-01-03T07:08:45.925Z,9.40
2023-01-03T07:11:13.412Z,10.45
2023-01-03T07:14:02.734Z,10.08
2023-01-03T07:16:42.987Z,9.45
2023-01-03T07:19:16.649Z,9.50
2023-01-03T07:21:46.396Z,9.45
2023-01-03T07:24:19.061Z,8.88
2023-01-03T07:26:48.869Z,9.78
2023-01-03T07:29:19.557Z,9.15
2023-01-03T07:31:48.877Z,9.50
2023-01-03T07:34:19.032Z,9.43
2023-01-03T07:36:49.767Z,8.75
2023-01-03T07:39:19.649Z,9.28
2023-01-03T07:42:07.121Z,8.88
2023-01-03T07:44:36.854Z,23.83
2023-01-03T07:47:05.671Z,14.03
2023-01-03T07:49:34.205Z,10.28
2023-01-03T07:52:03.458Z,8.68
2023-01-03T07:54:32.371Z,9.00
2023-01-03T07:57:01.022Z,10.82
2023-01-03T07:59:29.653Z,9.23
2023-01-03T08:01:58.385Z,9.33
2023-01-03T08:04:28.665Z,9.65
2023-01-03T08:06:58.291Z,10.08
2023-01-03T08:09:45.718Z,9.63
2023-01-03T08:12:32.968Z,10.50
2023-01-03T08:15:01.713Z,10.15
2023-01-03T08:17:31.000Z,9.68
2023-01-03T08:20:00.028Z,9.20
2023-01-03T08:22:29.550Z,9.75
2023-01-03T08:24:58.175Z,9.20
2023-01-03T08:27:27.102Z,10.30
2023-01-03T08:29:56.510Z,10.48
2023-01-03T08:32:27.110Z,9.28
2023-01-03T08:34:56.132Z,9.55
2023-01-03T08:37:25.190Z,8.78
2023-01-03T08:40:00.557Z,9.35
2023-01-03T08:42:30.047Z,8.83
2023-01-03T08:45:02.748Z,9.28
2023-01-03T08:47:31.705Z,8.80
2023-01-03T08:50:00.861Z,9.78
2023-01-03T08:52:34.806Z,10.43
2023-01-03T08:55:00.248Z,9.53
2023-01-03T08:57:29.204Z,10.13
2023-01-03T08:59:58.658Z,9.28
2023-01-03T09:02:28.118Z,9.20
2023-01-03T09:04:56.699Z,8.88
2023-01-03T09:07:25.589Z,9.68
2023-01-03T09:09:54.154Z,10.58
2023-01-03T09:12:22.760Z,9.83
2023-01-03T09:14:52.223Z,13.40
2023-01-03T09:17:22.059Z,12.90
2023-01-03T09:19:50.718Z,10.30
2023-01-03T09:22:20.022Z,8.70
2023-01-03T09:24:51.112Z,10.15
2023-01-03T09:27:22.088Z,9.85
2023-01-03T09:29:52.857Z,9.30
2023-01-03T09:32:21.716Z,9.98
2023-01-03T09:34:50.507Z,9.90
2023-01-03T09:37:19.293Z,9.85
2023-01-03T09:39:50.281Z,9.15
2023-01-03T09:42:43.273Z,10.00
2023-01-03T09:45:23.772Z,9.75
2023-01-03T09:47:53.115Z,9.40
2023-01-03T09:50:39.478Z,9.25
2023-01-03T09:53:44.707Z,9.38
2023-01-03T09:56:34.119Z,8.73
2023-01-03T09:59:35.726Z,9.40
2023-01-03T10:02:55.502Z,9.93
2023-01-03T10:05:39.194Z,10.28
2023-01-03T10:08:29.612Z,11.20
2023-01-03T10:11:19.469Z,9.50
2023-01-03T10:14:17.112Z,10.48
2023-01-03T10:17:07.363Z,10.50
2023-01-03T10:19:58.860Z,9.83
2023-01-03T10:22:31.845Z,9.40
2023-01-03T10:25:16.105Z,9.23
2023-01-03T10:27:51.999Z,8.70
2023-01-03T10:31:18.011Z,8.28
2023-01-03T10:33:49.270Z,8.70
2023-01-03T10:36:21.443Z,9.80
2023-01-03T10:39:10.051Z,8.53
2023-01-03T10:41:52.089Z,8.43
2023-01-03T10:44:30.189Z,7.47
2023-01-03T10:47:22.461Z,7.22
2023-01-03T10:50:03.613Z,7.30
2023-01-03T10:52:42.367Z,7.78
2023-01-03T10:55:16.244Z,7.90
2023-01-03T10:58:00.521Z,7.50
2023-01-03T11:00:38.251Z,7.90
2023-01-03T11:03:16.674Z,8.15
2023-01-03T11:06:00.953Z,8.40
2023-01-03T11:08:49.199Z,8.20
2023-01-03T11:14:26.812Z,7.62
2023-01-03T11:17:02.797Z,8.40
2023-01-03T11:19:35.534Z,7.75
2023-01-03T11:22:37.455Z,7.72
2023-01-03T11:25:33.464Z,8.00
2023-01-03T11:28:29.389Z,8.08
2023-01-03T11:31:22.875Z,8.45
2023-01-03T11:35:11.729Z,8.55
2023-01-03T11:37:39.370Z,7.97
2023-01-03T11:40:41.343Z,8.05
2023-01-03T11:43:37.535Z,8.60
2023-01-03T11:46:21.255Z,8.65
2023-01-03T11:49:23.994Z,8.35
2023-01-03T11:52:19.908Z,8.03
2023-01-03T11:55:22.052Z,9.00
2023-01-03T11:58:25.898Z,7.70
2023-01-03T12:01:26.279Z,7.80
2023-01-03T12:04:27.485Z,8.48
2023-01-03T12:07:47.240Z,8.40
2023-01-03T12:10:11.958Z,8.63
2023-01-03T12:13:26.931Z,8.43
2023-01-03T12:16:15.547Z,8.20
2023-01-03T12:19:11.988Z,8.83
2023-01-03T12:21:40.428Z,8.63
2023-01-03T12:24:37.779Z,8.93
2023-01-03T12:27:30.551Z,9.45
2023-01-03T12:30:10.429Z,9.95
2023-01-03T12:32:56.241Z,8.98
2023-01-03T12:35:46.844Z,9.95
2023-01-03T12:38:15.896Z,8.18
2023-01-03T12:41:06.479Z,9.10
2023-01-03T12:43:49.793Z,7.92
2023-01-03T12:46:22.940Z,8.88
2023-01-03T12:49:32.620Z,8.95
2023-01-03T12:52:01.344Z,7.92
2023-01-03T12:54:38.761Z,8.75
2023-01-03T12:57:38.975Z,8.65
2023-01-03T13:00:44.280Z,8.63
2023-01-03T13:03:46.649Z,8.00
2023-01-03T13:06:32.349Z,9.65
2023-01-03T13:09:09.832Z,9.38
2023-01-03T13:11:52.783Z,8.20
2023-01-03T13:14:25.194Z,8.63
2023-01-03T13:17:07.120Z,7.72
2023-01-03T13:19:40.636Z,7.72
2023-01-03T13:22:31.347Z,8.03
2023-01-03T13:25:29.121Z,7.78
2023-01-03T13:28:01.520Z,7.95
2023-01-03T13:30:36.071Z,8.38
2023-01-03T13:33:16.119Z,8.35
2023-01-03T13:35:50.317Z,8.60
2023-01-03T13:38:37.350Z,7.75
2023-01-03T13:41:18.160Z,8.15
2023-01-03T13:43:42.414Z,9.18
2023-01-03T13:46:28.771Z,9.38
2023-01-03T13:49:07.532Z,8.98
2023-01-03T13:51:47.613Z,8.75
2023-01-03T13:54:22.600Z,7.90
2023-01-03T13:56:59.471Z,7.67
2023-01-03T13:59:42.377Z,7.95
2023-01-03T14:02:26.379Z,7.78
2023-01-03T14:05:07.353Z,7.15
2023-01-03T14:08:15.635Z,7.37
2023-01-03T14:11:27.040Z,7.35
2023-01-03T14:14:03.413Z,6.25
2023-01-03T14:16:56.285Z,6.72
2023-01-03T14:19:38.434Z,6.80
2023-01-03T14:22:29.655Z,7.87
2023-01-03T14:24:58.105Z,7.72
2023-01-03T14:27:40.320Z,7.78
2023-01-03T14:30:24.402Z,8.70
2023-01-03T14:32:55.962Z,7.28
2023-01-03T14:35:45.131Z,6.90
2023-01-03T14:38:29.276Z,7.10
2023-01-03T14:41:04.364Z,7.03
2023-01-03T14:43:36.521Z,7.08
2023-01-03T14:46:13.378Z,8.13
2023-01-03T14:48:46.301Z,8.08
2023-01-03T14:51:17.274Z,7.62
2023-01-03T14:53:47.045Z,7.40
2023-01-03T14:56:16.997Z,7.55
2023-01-03T14:58:47.133Z,7.92
2023-01-03T15:01:18.618Z,6.83
2023-01-03T15:03:48.504Z,7.55
2023-01-03T15:06:28.102Z,6.83
2023-01-03T15:09:01.059Z,7.22
2023-01-03T15:11:42.775Z,6.65
2023-01-03T15:14:12.767Z,6.35
2023-01-03T15:16:44.797Z,6.40
2023-01-03T15:19:25.463Z,7.05
2023-01-03T15:22:14.922Z,6.87
2023-01-03T15:24:47.284Z,7.25
2023-01-03T15:27:41.459Z,6.42
2023-01-03T15:30:23.051Z,6.40
2023-01-03T15:33:02.894Z,6.45
2023-01-03T15:35:39.525Z,6.90
2023-01-03T15:38:38.797Z,7.40
2023-01-03T15:42:00.166Z,7.42
2023-01-03T15:44:28.517Z,6.17
2023-01-03T15:49:31.175Z,6.58
2023-01-03T15:52:01.003Z,6.42
2023-01-03T15:54:31.521Z,6.35
2023-01-03T15:57:09.014Z,7.35
2023-01-03T15:59:43.309Z,6.92
2023-01-03T16:02:15.908Z,6.87
2023-01-03T16:04:47.417Z,7.20
2023-01-03T16:07:17.784Z,6.85
2023-01-03T16:09:48.846Z,8.23
2023-01-03T16:12:24.110Z,7.00
2023-01-03T16:14:53.664Z,6.78
2023-01-03T16:17:26.246Z,7.15
2023-01-03T16:19:56.615Z,7.22
2023-01-03T16:22:35.096Z,6.58
2023-01-03T16:24:57.667Z,7.03
2023-01-03T16:27:27.300Z,6.08
2023-01-03T16:29:59.591Z,6.55
2023-01-03T16:32:31.193Z,6.72
2023-01-03T16:35:04.971Z,6.40
2023-01-03T16:37:35.078Z,6.87
2023-01-03T16:40:16.379Z,6.83
2023-01-03T16:42:45.857Z,8.73
2023-01-03T16:45:16.182Z,7.67
2023-01-03T16:47:46.260Z,7.28
2023-01-03T16:50:19.117Z,7.12
2023-01-03T16:52:52.126Z,7.85
2023-01-03T16:55:34.512Z,7.15
2023-01-03T16:58:04.973Z,7.78
2023-01-03T17:00:34.504Z,6.33
2023-01-03T17:03:03.366Z,6.20
2023-01-03T17:05:35.688Z,6.65
2023-01-03T17:08:25.406Z,7.15
2023-01-03T17:10:56.252Z,7.25
2023-01-03T17:13:32.796Z,6.75
2023-01-03T17:16:03.392Z,6.58
2023-01-03T17:18:37.229Z,6.12
2023-01-03T17:21:27.968Z,5.92
2023-01-03T17:24:04.492Z,6.33
2023-01-03T17:26:35.004Z,6.08
2023-01-03T17:29:04.814Z,5.50
2023-01-03T17:31:34.557Z,5.10
2023-01-03T17:34:26.811Z,5.78
2023-01-03T17:36:58.957Z,5.42
2023-01-03T17:39:28.831Z,5.70
2023-01-03T17:42:15.490Z,4.80
2023-01-03T17:44:47.415Z,3.23
2023-01-03T17:47:41.979Z,4.55
2023-01-03T17:50:12.218Z,4.55
2023-01-03T17:52:42.855Z,4.35
2023-01-03T17:55:25.321Z,4.50
2023-01-03T17:57:54.552Z,4.03
2023-01-03T18:00:26.198Z,4.45
2023-01-03T18:02:56.310Z,4.08
2023-01-03T18:05:27.960Z,3.92
2023-01-03T18:08:00.471Z,4.03
2023-01-03T18:10:43.831Z,4.15
2023-01-03T18:13:28.347Z,4.47
2023-01-03T18:15:57.087Z,4.35
2023-01-03T18:18:26.562Z,4.30
2023-01-03T18:20:55.587Z,4.70
2023-01-03T18:23:31.706Z,4.42
2023-01-03T18:26:04.745Z,3.80
2023-01-03T18:28:34.414Z,4.47
2023-01-03T18:31:03.248Z,3.80
2023-01-03T18:33:32.447Z,3.55
2023-01-03T18:36:01.428Z,4.03
2023-01-03T18:38:37.297Z,4.50
2023-01-03T18:41:06.426Z,4.20
2023-01-03T18:43:35.443Z,4.12
2023-01-03T18:46:06.067Z,3.83
2023-01-03T18:48:36.293Z,3.98
2023-01-03T18:51:06.089Z,4.28
2023-01-03T18:53:36.628Z,4.00
2023-01-03T18:56:05.905Z,3.20
2023-01-03T18:58:39.724Z,3.85
2023-01-03T19:01:09.961Z,3.80
2023-01-03T19:03:39.905Z,3.22
2023-01-03T19:06:20.059Z,3.37
2023-01-03T19:08:49.162Z,2.92
2023-01-03T19:11:21.662Z,2.90
2023-01-03T19:13:52.865Z,2.95
2023-01-03T19:16:24.557Z,3.00
2023-01-03T19:18:54.597Z,3.70
2023-01-03T19:21:23.783Z,3.55
2023-01-03T19:24:08.598Z,3.83
2023-01-03T19:26:54.699Z,3.58
2023-01-03T19:29:33.309Z,3.37
2023-01-03T19:32:03.440Z,3.33
2023-01-03T19:34:33.611Z,3.02
2023-01-03T19:37:04.806Z,2.98
2023-01-03T19:39:37.473Z,3.37
2023-01-03T19:42:25.801Z,2.80
2023-01-03T19:44:55.539Z,2.85
2023-01-03T19:47:24.668Z,3.12
2023-01-03T19:49:56.016Z,3.27
2023-01-03T19:52:25.781Z,3.50
2023-01-03T19:54:54.505Z,2.92
2023-01-03T19:57:25.400Z,3.10
2023-01-03T19:59:56.846Z,3.35
2023-01-03T20:02:37.164Z,3.33
2023-01-03T20:05:20.391Z,3.20
2023-01-03T20:07:50.491Z,3.17
2023-01-03T20:10:23.989Z,3.27
2023-01-03T20:12:55.148Z,3.22
2023-01-03T20:15:28.158Z,3.20
2023-01-03T20:17:59.566Z,3.37
2023-01-03T20:20:30.993Z,3.17
2023-01-03T20:23:07.153Z,3.10
2023-01-03T20:25:37.234Z,3.87
2023-01-03T20:28:05.956Z,2.75
2023-01-03T20:30:35.823Z,3.08
2023-01-03T20:33:04.748Z,3.33
2023-01-03T20:38:05.290Z,3.05
2023-01-03T20:40:34.091Z,2.47
2023-01-03T20:43:03.562Z,3.10
2023-01-03T20:45:35.916Z,2.60
2023-01-03T20:48:04.615Z,2.92
2023-01-03T20:50:34.731Z,3.12
2023-01-03T20:53:03.591Z,3.25
2023-01-03T20:55:33.451Z,3.90
2023-01-03T20:58:02.214Z,3.50
2023-01-03T21:00:32.251Z,3.58
2023-01-03T21:03:02.016Z,3.55
2023-01-03T21:05:32.435Z,3.42
2023-01-03T21:08:19.799Z,2.87
2023-01-03T21:10:50.856Z,3.02
2023-01-03T21:13:22.200Z,3.22
2023-01-03T21:15:52.361Z,3.22
2023-01-03T21:18:21.529Z,3.00
2023-01-03T21:20:51.236Z,3.17
2023-01-03T21:23:22.180Z,3.12
2023-01-03T21:25:50.843Z,2.90
2023-01-03T21:28:21.321Z,2.90
2023-01-03T21:30:51.397Z,2.65
2023-01-03T21:33:21.837Z,2.65
2023-01-03T21:35:51.781Z,2.95
2023-01-03T21:38:21.382Z,2.70
2023-01-03T21:40:50.077Z,2.83
2023-01-03T21:43:21.267Z,2.80
2023-01-03T21:45:51.645Z,2.67
2023-01-03T21:48:21.815Z,2.67
2023-01-03T21:50:50.405Z,3.20
2023-01-03T21:53:22.243Z,2.80
2023-01-03T21:55:50.883Z,3.55
2023-01-03T21:58:21.955Z,3.20
2023-01-03T22:00:51.877Z,2.83
2023-01-03T22:03:39.497Z,3.40
2023-01-03T22:06:12.437Z,2.50
2023-01-03T22:08:41.509Z,2.60
2023-01-03T22:11:12.061Z,2.70
2023-01-03T22:13:42.310Z,2.87
2023-01-03T22:16:12.092Z,3.62
2023-01-03T22:18:41.880Z,2.72
2023-01-03T22:21:11.259Z,2.83
2023-01-03T22:23:40.387Z,3.00
2023-01-03T22:26:12.816Z,3.05
2023-01-03T22:28:44.965Z,3.50
2023-01-03T22:31:16.860Z,2.92
2023-01-03T22:33:47.127Z,2.85
2023-01-03T22:36:15.762Z,2.70
2023-01-03T22:38:45.758Z,2.77
2023-01-03T22:41:17.266Z,2.42
2023-01-03T22:43:46.042Z,2.40
2023-01-03T22:46:16.767Z,2.33
2023-01-03T22:48:47.853Z,2.40
2023-01-03T22:51:17.057Z,2.40
2023-01-03T22:53:48.061Z,2.67
2023-01-03T22:56:17.233Z,2.52
2023-01-03T22:58:46.744Z,2.65
2023-01-03T23:01:19.001Z,2.52
2023-01-03T23:03:48.953Z,2.55
2023-01-03T23:06:19.560Z,2.67
2023-01-03T23:08:51.926Z,3.00
2023-01-03T23:11:42.015Z,2.50
2023-01-03T23:14:15.867Z,2.70
2023-01-03T23:16:45.360Z,2.17
2023-01-03T23:19:17.317Z,2.62
2023-01-03T23:21:47.836Z,2.40
2023-01-03T23:24:22.318Z,2.47
2023-01-03T23:26:51.250Z,2.50
2023-01-03T23:29:22.039Z,2.50
2023-01-03T23:31:52.626Z,2.30
2023-01-03T23:34:21.303Z,2.50
2023-01-03T23:36:50.307Z,2.42
2023-01-03T23:39:18.927Z,2.47
2023-01-03T23:41:48.651Z,2.27
2023-01-03T23:44:17.272Z,2.00
2023-01-03T23:46:46.968Z,2.08
2023-01-03T23:49:16.063Z,2.10
2023-01-03T23:51:45.775Z,2.12
2023-01-03T23:54:14.484Z,2.37
2023-01-03T23:56:44.551Z,2.05
2023-01-03T23:59:13.155Z,1.77
